createdAt,value
2018-03-22T00:01:44.071Z,98.30
2018-03-22T00:04:12.051Z,98.10
2018-03-22T00:06:39.637Z,98.10
2018-03-22T00:09:07.205Z,98.20
2018-03-22T00:11:34.802Z,98.20
2018-03-22T00:14:02.389Z,98.30
2018-03-22T00:16:29.957Z,98.50
2018-03-22T00:18:57.564Z,98.30
2018-03-22T00:21:25.162Z,98.40
2018-03-22T00:23:52.794Z,98.10
2018-03-22T00:26:21.000Z,98.10
2018-03-22T00:28:48.544Z,98.20
2018-03-22T00:31:27.173Z,98.20
2018-03-22T00:33:54.727Z,98.20
2018-03-22T00:36:22.272Z,98.20
2018-03-22T00:38:49.858Z,98.20
2018-03-22T00:41:17.407Z,98.20
2018-03-22T00:43:44.971Z,98.20
2018-03-22T00:46:12.984Z,98.10
2018-03-22T00:48:40.547Z,97.90
2018-03-22T00:51:08.171Z,97.90
2018-03-22T00:53:35.741Z,98.00
2018-03-22T00:56:03.289Z,98.00
2018-03-22T00:58:30.824Z,98.00
2018-03-22T01:00:58.408Z,98.00
2018-03-22T01:03:25.952Z,97.90
2018-03-22T01:05:53.500Z,97.80
2018-03-22T01:08:21.108Z,97.90
2018-03-22T01:10:48.647Z,97.80
2018-03-22T01:13:16.424Z,97.80
2018-03-22T01:15:44.016Z,98.00
2018-03-22T01:18:11.572Z,98.30
2018-03-22T01:20:39.883Z,98.00
2018-03-22T01:23:07.552Z,98.00
2018-03-22T01:25:35.112Z,98.00
2018-03-22T01:28:02.670Z,98.00
2018-03-22T01:30:47.455Z,98.10
2018-03-22T01:33:16.488Z,98.30
2018-03-22T01:35:44.804Z,98.30
2018-03-22T01:38:12.367Z,98.20
2018-03-22T01:40:39.916Z,98.30
2018-03-22T01:43:07.470Z,98.40
2018-03-22T01:45:35.044Z,98.40
2018-03-22T01:48:02.732Z,98.10
2018-03-22T01:50:30.275Z,98.20
2018-03-22T01:53:09.524Z,98.20
2018-03-22T01:55:37.063Z,98.10
2018-03-22T01:58:04.625Z,98.10
2018-03-22T02:00:32.214Z,98.00
2018-03-22T02:02:59.760Z,98.00
2018-03-22T02:05:27.318Z,98.10
2018-03-22T02:07:54.908Z,98.10
2018-03-22T02:10:22.484Z,98.20
2018-03-22T02:12:50.788Z,97.70
2018-03-22T02:15:18.650Z,97.70
2018-03-22T02:17:46.196Z,97.80
2018-03-22T02:20:15.491Z,97.70
2018-03-22T02:22:43.067Z,97.60
2018-03-22T02:25:10.613Z,97.50
2018-03-22T02:27:38.924Z,97.70
2018-03-22T02:30:06.491Z,97.70
2018-03-22T02:32:34.052Z,97.60
2018-03-22T02:35:01.606Z,97.80
2018-03-22T02:37:29.714Z,97.70
2018-03-22T02:39:57.280Z,97.90
2018-03-22T02:42:24.824Z,97.70
2018-03-22T02:44:52.417Z,97.60
2018-03-22T02:47:20.734Z,97.70
2018-03-22T02:49:48.516Z,97.60
2018-03-22T02:52:17.211Z,97.70
2018-03-22T02:54:44.760Z,97.60
2018-03-22T02:57:12.359Z,97.70
2018-03-22T02:59:39.955Z,97.70
2018-03-22T03:02:07.508Z,97.50
2018-03-22T03:04:35.060Z,97.70
2018-03-22T03:07:02.652Z,97.40
2018-03-22T03:09:30.197Z,97.10
2018-03-22T03:11:57.740Z,97.20
2018-03-22T03:14:25.344Z,97.30
2018-03-22T03:16:52.875Z,97.50
2018-03-22T03:19:20.419Z,97.40
2018-03-22T03:21:48.191Z,97.40
2018-03-22T03:24:16.804Z,97.30
2018-03-22T03:26:44.357Z,97.30
2018-03-22T03:29:11.937Z,97.00
2018-03-22T03:31:39.492Z,97.30
2018-03-22T03:34:07.044Z,97.30
2018-03-22T03:36:34.627Z,97.10
2018-03-22T03:39:02.948Z,96.90
2018-03-22T03:41:30.506Z,96.90
2018-03-22T03:43:58.379Z,96.90
2018-03-22T03:46:25.932Z,96.90
2018-03-22T03:48:53.480Z,96.90
2018-03-22T03:51:21.477Z,96.90
2018-03-22T03:53:49.020Z,97.00
2018-03-22T03:56:16.627Z,97.00
2018-03-22T03:58:44.221Z,97.00
2018-03-22T04:01:12.536Z,96.90
2018-03-22T04:03:40.093Z,96.90
2018-03-22T04:06:08.084Z,96.90
2018-03-22T04:08:35.640Z,96.70
2018-03-22T04:11:03.195Z,96.60
2018-03-22T04:13:30.759Z,96.60
2018-03-22T04:15:58.308Z,96.40
2018-03-22T04:18:25.849Z,96.30
2018-03-22T04:20:53.495Z,96.30
2018-03-22T04:23:21.044Z,96.20
2018-03-22T04:25:48.587Z,96.10
2018-03-22T04:28:17.044Z,96.40
2018-03-22T04:30:44.591Z,96.00
2018-03-22T04:33:12.127Z,96.10
2018-03-22T04:35:39.714Z,96.20
2018-03-22T04:38:07.272Z,96.30
2018-03-22T04:40:34.848Z,96.20
2018-03-22T04:43:02.432Z,96.20
2018-03-22T04:45:30.913Z,96.40
2018-03-22T04:47:58.459Z,96.30
2018-03-22T04:50:26.328Z,96.10
2018-03-22T04:52:54.116Z,96.20
2018-03-22T04:55:22.533Z,96.00
2018-03-22T04:57:50.875Z,96.30
2018-03-22T05:00:19.223Z,96.10
2018-03-22T05:02:46.767Z,96.10
2018-03-22T05:05:15.529Z,96.20
2018-03-22T05:07:43.075Z,96.20
2018-03-22T05:10:10.623Z,96.00
2018-03-22T05:12:39.512Z,95.90
2018-03-22T05:15:07.059Z,95.90
2018-03-22T05:17:35.386Z,95.90
2018-03-22T05:20:02.963Z,95.90
2018-03-22T05:22:30.511Z,95.90
2018-03-22T05:24:58.063Z,96.00
2018-03-22T05:27:25.656Z,95.90
2018-03-22T05:29:53.223Z,96.00
2018-03-22T05:32:20.771Z,96.00
2018-03-22T05:34:48.855Z,95.80
2018-03-22T05:37:16.532Z,95.80
2018-03-22T05:39:44.864Z,95.80
2018-03-22T05:42:12.472Z,95.80
2018-03-22T05:44:40.791Z,96.20
2018-03-22T05:47:08.980Z,96.10
2018-03-22T05:49:36.596Z,96.20
2018-03-22T05:52:04.915Z,96.70
2018-03-22T05:54:32.753Z,96.70
2018-03-22T05:57:00.638Z,96.90
2018-03-22T05:59:28.187Z,96.90
2018-03-22T06:02:00.455Z,97.10
2018-03-22T06:04:28.048Z,97.30
2018-03-22T06:06:55.604Z,97.00
2018-03-22T06:09:23.153Z,97.10
2018-03-22T06:11:50.735Z,96.80
2018-03-22T06:14:18.284Z,96.80
2018-03-22T06:16:45.845Z,96.40
2018-03-22T06:19:15.811Z,96.00
2018-03-22T06:21:44.123Z,95.90
2018-03-22T06:24:11.667Z,95.80
2018-03-22T06:26:39.242Z,95.60
2018-03-22T06:29:06.783Z,95.60
2018-03-22T06:31:34.333Z,94.90
2018-03-22T06:34:02.688Z,95.00
2018-03-22T06:36:30.227Z,95.00
2018-03-22T06:38:57.779Z,95.00
2018-03-22T06:41:25.409Z,94.30
2018-03-22T06:43:52.955Z,94.50
2018-03-22T06:46:20.491Z,94.40
2018-03-22T06:48:48.071Z,93.80
2018-03-22T06:51:18.091Z,93.90
2018-03-22T06:53:45.631Z,93.80
2018-03-22T06:56:15.295Z,93.80
2018-03-22T06:58:42.844Z,93.40
2018-03-22T07:01:10.397Z,93.70
2018-03-22T07:03:38.552Z,94.30
2018-03-22T07:06:06.866Z,93.50
2018-03-22T07:08:34.414Z,93.50
2018-03-22T07:11:02.173Z,92.90
2018-03-22T07:13:29.750Z,91.50
2018-03-22T07:15:57.289Z,91.10
2018-03-22T07:18:24.868Z,89.70
2018-03-22T07:20:52.419Z,83.60
2018-03-22T07:23:19.959Z,79.30
2018-03-22T07:25:47.830Z,73.00
2018-03-22T07:28:16.329Z,66.20
2018-03-22T07:30:43.871Z,66.20
2018-03-22T07:33:11.445Z,61.90
2018-03-22T07:35:38.988Z,62.00
2018-03-22T07:38:06.532Z,56.80
2018-03-22T07:40:34.867Z,50.60
2018-03-22T07:43:08.108Z,50.50
2018-03-22T07:45:36.968Z,44.10
2018-03-22T07:48:04.509Z,43.90
2018-03-22T07:50:32.127Z,41.90
2018-03-22T07:52:59.729Z,40.00
2018-03-22T07:55:27.267Z,38.00
2018-03-22T07:57:54.963Z,38.50
2018-03-22T08:00:22.539Z,40.50
2018-03-22T08:02:50.180Z,38.30
2018-03-22T08:05:17.724Z,36.70
2018-03-22T08:07:45.899Z,33.00
2018-03-22T08:10:14.675Z,35.60
2018-03-22T08:12:42.248Z,35.60
2018-03-22T08:15:09.824Z,34.50
2018-03-22T08:17:37.376Z,33.30
2018-03-22T08:20:04.924Z,32.50
2018-03-22T08:22:32.488Z,32.70
2018-03-22T08:25:00.049Z,31.10
2018-03-22T08:27:27.606Z,30.60
2018-03-22T08:29:55.631Z,31.20
2018-03-22T08:32:23.183Z,32.20
2018-03-22T08:34:50.723Z,34.10
2018-03-22T08:37:19.516Z,33.30
2018-03-22T08:39:47.053Z,35.30
2018-03-22T08:42:16.514Z,35.60
2018-03-22T08:44:45.152Z,36.60
2018-03-22T08:47:13.079Z,36.60
2018-03-22T08:49:40.632Z,35.10
2018-03-22T08:52:08.515Z,34.10
2018-03-22T08:54:36.068Z,31.90
2018-03-22T08:57:03.623Z,32.00
2018-03-22T08:59:31.601Z,34.60
2018-03-22T09:01:59.143Z,33.10
2018-03-22T09:04:27.453Z,35.20
2018-03-22T09:06:55.024Z,35.10
2018-03-22T09:09:22.573Z,36.00
2018-03-22T09:11:50.124Z,34.50
2018-03-22T09:14:18.283Z,34.20
2018-03-22T09:16:45.836Z,32.40
2018-03-22T09:19:15.388Z,33.10
2018-03-22T09:21:42.964Z,33.10
2018-03-22T09:24:10.516Z,35.30
2018-03-22T09:26:43.731Z,33.80
2018-03-22T09:29:11.304Z,31.70
2018-03-22T09:31:38.857Z,29.40
2018-03-22T09:34:06.400Z,28.00
2018-03-22T09:36:34.175Z,26.50
2018-03-22T09:39:01.718Z,25.90
2018-03-22T09:41:29.281Z,27.30
2018-03-22T09:43:56.864Z,26.30
2018-03-22T09:46:24.411Z,26.60
2018-03-22T09:48:51.951Z,26.90
2018-03-22T09:51:19.524Z,26.70
2018-03-22T09:53:47.108Z,27.20
2018-03-22T09:56:16.453Z,26.40
2018-03-22T09:58:44.425Z,26.20
2018-03-22T10:01:12.376Z,26.50
2018-03-22T10:03:39.919Z,27.30
2018-03-22T10:06:07.492Z,27.50
2018-03-22T10:08:35.384Z,27.80
2018-03-22T10:11:03.899Z,27.10
2018-03-22T10:13:31.475Z,26.50
2018-03-22T10:15:59.021Z,26.90
2018-03-22T10:18:26.580Z,27.40
2018-03-22T10:20:54.844Z,27.80
2018-03-22T10:23:22.391Z,29.50
2018-03-22T10:25:49.942Z,29.90
2018-03-22T10:28:17.507Z,31.80
2018-03-22T10:30:45.052Z,31.20
2018-03-22T10:33:12.611Z,31.70
2018-03-22T10:35:40.181Z,33.50
2018-03-22T10:38:07.743Z,35.20
2018-03-22T10:40:35.459Z,33.90
2018-03-22T10:43:03.715Z,34.70
2018-03-22T10:45:31.272Z,35.40
2018-03-22T10:47:58.812Z,35.10
2018-03-22T10:50:26.378Z,37.20
2018-03-22T10:52:53.924Z,35.70
2018-03-22T10:55:21.464Z,37.60
2018-03-22T10:57:49.048Z,36.70
2018-03-22T11:00:22.332Z,37.10
2018-03-22T11:02:54.445Z,35.70
2018-03-22T11:05:22.787Z,36.90
2018-03-22T11:07:50.344Z,36.80
2018-03-22T11:10:17.918Z,38.20
2018-03-22T11:12:45.480Z,36.90
2018-03-22T11:15:29.320Z,35.80
2018-03-22T11:20:37.661Z,36.60
2018-03-22T11:23:05.200Z,37.40
2018-03-22T11:25:32.788Z,37.70
2018-03-22T11:28:00.348Z,36.40
2018-03-22T11:30:29.543Z,37.30
2018-03-22T11:32:57.142Z,35.70
2018-03-22T11:35:25.478Z,36.80
2018-03-22T11:37:53.784Z,40.00
2018-03-22T11:40:21.325Z,39.90
2018-03-22T11:42:49.067Z,39.50
2018-03-22T11:45:16.610Z,37.30
2018-03-22T11:47:44.187Z,35.90
2018-03-22T11:50:11.756Z,36.90
2018-03-22T11:52:39.297Z,37.20
2018-03-22T11:55:06.856Z,39.40
2018-03-22T11:57:34.424Z,39.20
2018-03-22T12:00:01.991Z,37.50
2018-03-22T12:02:29.986Z,36.90
2018-03-22T12:04:58.338Z,38.60
2018-03-22T12:07:25.935Z,37.60
2018-03-22T12:09:54.926Z,37.50
2018-03-22T12:12:22.904Z,35.40
2018-03-22T12:14:50.464Z,34.10
2018-03-22T12:17:18.779Z,34.50
2018-03-22T12:19:46.422Z,34.40
2018-03-22T12:22:15.668Z,36.60
2018-03-22T12:24:43.250Z,35.80
2018-03-22T12:27:11.327Z,35.50
2018-03-22T12:29:38.895Z,37.90
2018-03-22T12:32:06.445Z,36.20
2018-03-22T12:34:34.017Z,33.60
2018-03-22T12:37:02.330Z,36.80
2018-03-22T12:39:29.889Z,36.70
2018-03-22T12:41:57.468Z,35.80
2018-03-22T12:44:25.028Z,36.80
2018-03-22T12:46:52.559Z,34.70
2018-03-22T12:49:20.359Z,33.60
2018-03-22T12:51:47.901Z,32.80
2018-03-22T12:54:16.532Z,35.20
2018-03-22T12:56:44.111Z,33.70
2018-03-22T12:59:11.656Z,34.30
2018-03-22T13:01:39.207Z,37.60
2018-03-22T13:04:06.784Z,37.40
2018-03-22T13:06:34.857Z,34.40
2018-03-22T13:09:03.186Z,34.30
2018-03-22T13:11:31.059Z,34.80
2018-03-22T13:13:58.591Z,34.90
2018-03-22T13:16:26.131Z,34.80
2018-03-22T13:18:54.850Z,36.60
2018-03-22T13:21:22.400Z,35.30
2018-03-22T13:23:49.965Z,37.10
2018-03-22T13:26:17.577Z,36.90
2018-03-22T13:28:45.132Z,35.50
2018-03-22T13:31:12.692Z,37.10
2018-03-22T13:33:40.657Z,36.90
2018-03-22T13:36:09.570Z,37.90
2018-03-22T13:38:37.895Z,38.00
2018-03-22T13:41:05.512Z,35.30
2018-03-22T13:43:34.679Z,34.80
2018-03-22T13:46:02.301Z,34.70
2018-03-22T13:48:30.818Z,31.60
2018-03-22T13:50:58.386Z,32.80
2018-03-22T13:53:26.812Z,33.40
2018-03-22T13:55:55.840Z,34.30
2018-03-22T13:58:23.406Z,34.70
2018-03-22T14:00:51.912Z,35.70
2018-03-22T14:03:19.748Z,35.40
2018-03-22T14:05:47.381Z,36.10
2018-03-22T14:10:50.797Z,33.20
2018-03-22T14:13:22.284Z,35.10
2018-03-22T14:15:49.892Z,36.30
2018-03-22T14:18:18.591Z,35.10
2018-03-22T14:20:46.895Z,35.90
2018-03-22T14:23:14.584Z,35.80
2018-03-22T14:25:42.191Z,36.60
2018-03-22T14:28:10.714Z,38.90
2018-03-22T14:30:38.265Z,36.90
2018-03-22T14:33:05.892Z,36.00
2018-03-22T14:35:34.368Z,41.40
2018-03-22T14:38:02.689Z,39.70
2018-03-22T14:40:30.790Z,39.70
2018-03-22T14:42:58.442Z,41.40
2018-03-22T14:45:26.524Z,40.60
2018-03-22T14:47:54.968Z,39.00
2018-03-22T14:50:22.526Z,40.80
2018-03-22T14:52:50.849Z,41.60
2018-03-22T14:55:18.468Z,41.60
2018-03-22T14:57:46.028Z,40.00
2018-03-22T15:00:16.119Z,42.00
2018-03-22T15:02:44.497Z,41.50
2018-03-22T15:05:12.672Z,41.50
2018-03-22T15:07:40.270Z,41.20
2018-03-22T15:10:08.897Z,43.00
2018-03-22T15:15:11.084Z,42.20
2018-03-22T15:17:39.397Z,39.70
2018-03-22T15:20:06.940Z,39.60
2018-03-22T15:22:34.701Z,41.00
2018-03-22T15:25:05.114Z,42.00
2018-03-22T15:27:36.905Z,42.90
2018-03-22T15:30:04.468Z,42.90
2018-03-22T15:32:33.166Z,43.90
2018-03-22T15:35:00.830Z,44.40
2018-03-22T15:37:35.733Z,43.40
2018-03-22T15:40:03.859Z,41.80
2018-03-22T15:42:33.126Z,42.70
2018-03-22T15:45:00.697Z,45.40
2018-03-22T15:47:28.339Z,43.70
2018-03-22T15:49:55.876Z,43.40
2018-03-22T15:52:24.182Z,43.60
2018-03-22T15:54:51.748Z,43.60
2018-03-22T15:57:19.287Z,43.10
2018-03-22T15:59:46.824Z,43.90
2018-03-22T16:02:16.904Z,46.00
2018-03-22T16:04:44.435Z,45.90
2018-03-22T16:07:11.984Z,44.90
2018-03-22T16:09:40.226Z,43.80
2018-03-22T16:12:08.220Z,45.40
2018-03-22T16:14:35.763Z,45.00
2018-03-22T16:17:04.096Z,46.40
2018-03-22T16:19:31.636Z,46.30
2018-03-22T16:21:59.171Z,45.70
2018-03-22T16:24:27.403Z,48.20
2018-03-22T16:26:54.941Z,47.80
2018-03-22T16:29:22.476Z,49.60
2018-03-22T16:31:50.808Z,51.50
2018-03-22T16:34:18.344Z,51.40
2018-03-22T16:36:45.908Z,52.40
2018-03-22T16:39:25.263Z,56.10
2018-03-22T16:44:23.392Z,55.90
2018-03-22T16:46:52.283Z,58.60
2018-03-22T16:49:19.821Z,58.70
2018-03-22T16:51:47.359Z,61.90
2018-03-22T16:54:15.511Z,65.90
2018-03-22T16:56:43.048Z,70.50
2018-03-22T16:59:10.601Z,81.00
2018-03-22T17:01:38.936Z,89.00
2018-03-22T17:04:06.467Z,89.00
2018-03-22T17:06:34.005Z,89.00
2018-03-22T17:09:01.864Z,88.80
2018-03-22T17:11:29.397Z,86.90
2018-03-22T17:13:57.347Z,87.40
2018-03-22T17:16:25.208Z,89.30
2018-03-22T17:18:52.822Z,90.60
2018-03-22T17:21:21.131Z,91.10
2018-03-22T17:23:48.704Z,91.10
2018-03-22T17:26:16.869Z,91.00
2018-03-22T17:28:44.451Z,91.10
2018-03-22T17:31:12.040Z,90.30
2018-03-22T17:33:39.585Z,88.70
2018-03-22T17:36:07.128Z,88.50
2018-03-22T17:38:34.695Z,90.00
2018-03-22T17:41:02.292Z,91.00
2018-03-22T17:43:29.868Z,91.50
2018-03-22T17:45:57.668Z,92.00
2018-03-22T17:48:25.298Z,93.30
2018-03-22T17:50:52.835Z,94.40
2018-03-22T17:53:20.688Z,95.20
2018-03-22T17:55:48.364Z,96.20
2018-03-22T17:58:17.181Z,97.30
2018-03-22T18:00:46.203Z,97.30
2018-03-22T18:03:29.105Z,98.10
2018-03-22T18:10:04.224Z,98.90
2018-03-22T18:12:31.815Z,99.60
2018-03-22T18:14:59.569Z,99.90
2018-03-22T18:17:27.694Z,99.90
2018-03-22T18:19:55.300Z,99.90
2018-03-22T18:22:22.888Z,99.90
2018-03-22T18:24:50.511Z,99.90
2018-03-22T18:27:18.132Z,99.90
2018-03-22T18:29:45.791Z,99.90
2018-03-22T18:32:16.115Z,99.90
2018-03-22T18:34:44.035Z,99.90
2018-03-22T18:37:11.669Z,99.90
2018-03-22T18:39:39.244Z,99.90
2018-03-22T18:42:07.743Z,99.90
2018-03-22T18:44:35.306Z,99.90
2018-03-22T18:47:02.931Z,99.90
2018-03-22T18:49:30.719Z,99.90
2018-03-22T18:51:58.261Z,99.90
2018-03-22T18:54:26.123Z,99.90
2018-03-22T18:56:53.729Z,99.90
2018-03-22T18:59:21.277Z,99.90
2018-03-22T19:01:49.810Z,99.90
2018-03-22T19:04:17.372Z,99.90
2018-03-22T19:06:44.916Z,99.90
2018-03-22T19:09:12.592Z,99.90
2018-03-22T19:11:41.594Z,99.90
2018-03-22T19:14:09.211Z,99.90
2018-03-22T19:16:38.521Z,99.90
2018-03-22T19:19:06.177Z,99.90
2018-03-22T19:21:34.083Z,99.90
2018-03-22T19:24:01.965Z,99.90
2018-03-22T19:26:29.542Z,99.90
2018-03-22T19:28:57.105Z,99.90
2018-03-22T19:31:24.740Z,99.90
2018-03-22T19:33:52.298Z,99.90
2018-03-22T19:36:19.925Z,99.90
2018-03-22T19:38:47.724Z,99.90
2018-03-22T19:41:17.369Z,99.90
2018-03-22T19:43:45.016Z,99.90
2018-03-22T19:46:14.330Z,99.90
2018-03-22T19:48:42.650Z,99.90
2018-03-22T19:51:10.190Z,99.90
2018-03-22T19:53:37.795Z,99.90
2018-03-22T19:56:05.424Z,99.90
2018-03-22T19:58:33.708Z,99.90
2018-03-22T20:01:01.320Z,99.90
2018-03-22T20:03:29.015Z,99.90
2018-03-22T20:05:56.604Z,99.90
2018-03-22T20:08:24.214Z,99.90
2018-03-22T20:10:52.580Z,99.90
2018-03-22T20:13:20.140Z,99.90
2018-03-22T20:15:47.752Z,99.90
2018-03-22T20:18:16.979Z,99.90
2018-03-22T20:20:44.532Z,99.90
2018-03-22T20:23:12.148Z,99.90
2018-03-22T20:25:39.798Z,99.90
2018-03-22T20:28:08.123Z,99.90
2018-03-22T20:30:36.460Z,99.90
2018-03-22T20:33:04.168Z,99.90
2018-03-22T20:35:31.714Z,99.90
2018-03-22T20:37:59.324Z,99.90
2018-03-22T20:40:27.651Z,99.90
2018-03-22T20:42:55.857Z,99.90
2018-03-22T20:45:24.081Z,99.90
2018-03-22T20:47:51.710Z,99.90
2018-03-22T20:50:19.309Z,99.90
2018-03-22T20:52:46.881Z,99.90
2018-03-22T20:55:25.109Z,99.90
2018-03-22T21:01:51.171Z,99.90
2018-03-22T21:04:18.760Z,99.90
2018-03-22T21:06:46.300Z,99.90
2018-03-22T21:09:27.370Z,99.80
2018-03-22T21:11:54.971Z,99.80
2018-03-22T21:14:22.521Z,99.70
2018-03-22T21:16:50.947Z,99.60
2018-03-22T21:19:19.204Z,99.60
2018-03-22T21:21:48.972Z,99.40
2018-03-22T21:24:16.577Z,99.40
2018-03-22T21:26:44.150Z,99.50
2018-03-22T21:29:11.832Z,99.90
2018-03-22T21:31:39.411Z,99.60
2018-03-22T21:34:06.969Z,99.50
2018-03-22T21:36:34.629Z,99.50
2018-03-22T21:39:02.238Z,99.20
2018-03-22T21:41:29.800Z,99.10
2018-03-22T21:44:09.611Z,99.20
2018-03-22T21:46:37.191Z,99.10
2018-03-22T21:49:04.772Z,99.20
2018-03-22T21:51:32.345Z,99.10
2018-03-22T21:53:59.879Z,99.50
2018-03-22T21:56:27.429Z,99.90
2018-03-22T21:58:55.763Z,99.90
2018-03-22T22:01:23.304Z,99.90
2018-03-22T22:03:50.922Z,99.90
2018-03-22T22:06:18.564Z,99.90
2018-03-22T22:08:46.121Z,99.90
2018-03-22T22:11:27.879Z,99.90
2018-03-22T22:17:35.786Z,99.90
2018-03-22T22:20:03.792Z,99.90
2018-03-22T22:22:31.339Z,99.90
2018-03-22T22:24:59.196Z,99.90
2018-03-22T22:27:26.813Z,99.90
2018-03-22T22:29:54.365Z,99.90
2018-03-22T22:32:22.728Z,99.90
2018-03-22T22:34:50.347Z,99.90
2018-03-22T22:37:17.963Z,99.90
2018-03-22T22:39:45.580Z,99.90
2018-03-22T22:42:25.159Z,99.90
2018-03-22T22:46:58.032Z,99.90
2018-03-22T22:49:25.568Z,99.90
2018-03-22T22:51:53.128Z,99.90
2018-03-22T22:54:20.740Z,99.90
2018-03-22T22:56:48.296Z,99.90
2018-03-22T22:59:16.476Z,99.90
2018-03-22T23:01:44.880Z,99.90
2018-03-22T23:04:12.428Z,99.90
2018-03-22T23:06:40.735Z,99.90
2018-03-22T23:09:08.940Z,99.90
2018-03-22T23:11:36.489Z,99.90
2018-03-22T23:14:04.023Z,99.90
2018-03-22T23:16:31.596Z,99.90
2018-03-22T23:18:59.142Z,99.90
2018-03-22T23:21:27.133Z,99.90
2018-03-22T23:23:54.753Z,99.90
2018-03-22T23:26:23.140Z,99.90
2018-03-22T23:28:50.708Z,99.90
2018-03-22T23:31:18.579Z,99.90
2018-03-22T23:33:46.108Z,99.90
2018-03-22T23:36:24.495Z,99.90
2018-03-22T23:42:28.992Z,99.90
2018-03-22T23:44:56.531Z,99.90
2018-03-22T23:47:24.853Z,99.90
2018-03-22T23:49:52.479Z,99.90
2018-03-22T23:52:20.790Z,99.90
2018-03-22T23:54:48.347Z,99.90
2018-03-22T23:57:16.749Z,99.90
2018-03-22T23:59:44.391Z,99.90
